sensor_id;sensor_type;location;lat;lon;timestamp;P1;durP1;ratioP1;P2;durP2;ratioP2
63193;SDS011;49289;51.670;5.624;2023-09-30T00:01:05;10.30;;;5.20;;
63193;SDS011;49289;51.670;5.624;2023-09-30T00:02:54;12.60;;;5.00;;
63193;SDS011;49289;51.670;5.624;2023-09-30T00:04:41;10.10;;;4.60;;
63193;SDS011;49289;51.670;5.624;2023-09-30T00:06:28;10.90;;;5.00;;
63193;SDS011;49289;51.670;5.624;2023-09-30T00:08:15;11.50;;;4.80;;
63193;SDS011;49289;51.670;5.624;2023-09-30T00:10:02;9.60;;;5.00;;
63193;SDS011;49289;51.670;5.624;2023-09-30T00:11:51;8.30;;;4.70;;
63193;SDS011;49289;51.670;5.624;2023-09-30T00:13:39;10.10;;;5.30;;
63193;SDS011;49289;51.670;5.624;2023-09-30T00:15:27;9.00;;;5.20;;
63193;SDS011;49289;51.670;5.624;2023-09-30T00:17:15;10.10;;;4.40;;
63193;SDS011;49289;51.670;5.624;2023-09-30T00:19:03;14.00;;;5.40;;
63193;SDS011;49289;51.670;5.624;2023-09-30T00:20:51;11.40;;;5.50;;
63193;SDS011;49289;51.670;5.624;2023-09-30T00:22:39;13.00;;;5.10;;
63193;SDS011;49289;51.670;5.624;2023-09-30T00:24:27;12.00;;;5.20;;
63193;SDS011;49289;51.670;5.624;2023-09-30T00:26:15;12.50;;;5.30;;
63193;SDS011;49289;51.670;5.624;2023-09-30T00:28:03;12.90;;;5.60;;
63193;SDS011;49289;51.670;5.624;2023-09-30T00:29:51;14.20;;;5.70;;
63193;SDS011;49289;51.670;5.624;2023-09-30T00:31:38;11.00;;;5.10;;
63193;SDS011;49289;51.670;5.624;2023-09-30T00:33:25;11.30;;;5.20;;
63193;SDS011;49289;51.670;5.624;2023-09-30T00:35:12;11.90;;;5.10;;
63193;SDS011;49289;51.670;5.624;2023-09-30T00:37:00;11.50;;;5.60;;
63193;SDS011;49289;51.670;5.624;2023-09-30T00:38:50;12.10;;;6.00;;
63193;SDS011;49289;51.670;5.624;2023-09-30T00:40:37;14.00;;;6.00;;
63193;SDS011;49289;51.670;5.624;2023-09-30T00:42:25;10.80;;;5.40;;
63193;SDS011;49289;51.670;5.624;2023-09-30T00:44:14;11.20;;;5.70;;
63193;SDS011;49289;51.670;5.624;2023-09-30T00:46:02;9.30;;;5.40;;
63193;SDS011;49289;51.670;5.624;2023-09-30T00:47:49;12.80;;;5.60;;
63193;SDS011;49289;51.670;5.624;2023-09-30T00:49:36;11.80;;;5.50;;
63193;SDS011;49289;51.670;5.624;2023-09-30T00:51:23;13.30;;;5.80;;
63193;SDS011;49289;51.670;5.624;2023-09-30T00:53:12;10.00;;;5.70;;
63193;SDS011;49289;51.670;5.624;2023-09-30T00:55:00;9.70;;;5.70;;
63193;SDS011;49289;51.670;5.624;2023-09-30T00:56:48;10.90;;;6.10;;
63193;SDS011;49289;51.670;5.624;2023-09-30T00:58:35;10.40;;;6.30;;
63193;SDS011;49289;51.670;5.624;2023-09-30T01:00:23;11.60;;;5.30;;
63193;SDS011;49289;51.670;5.624;2023-09-30T01:02:11;12.00;;;6.40;;
63193;SDS011;49289;51.670;5.624;2023-09-30T01:03:59;11.30;;;5.70;;
63193;SDS011;49289;51.670;5.624;2023-09-30T01:05:47;13.30;;;6.10;;
63193;SDS011;49289;51.670;5.624;2023-09-30T01:07:35;15.60;;;7.00;;
63193;SDS011;49289;51.670;5.624;2023-09-30T01:09:23;13.50;;;6.20;;
63193;SDS011;49289;51.670;5.624;2023-09-30T01:11:12;14.10;;;7.20;;
63193;SDS011;49289;51.670;5.624;2023-09-30T01:13:00;14.10;;;6.40;;
63193;SDS011;49289;51.670;5.624;2023-09-30T01:14:47;11.30;;;7.20;;
63193;SDS011;49289;51.670;5.624;2023-09-30T01:16:34;12.20;;;6.40;;
63193;SDS011;49289;51.670;5.624;2023-09-30T01:18:21;14.30;;;6.70;;
63193;SDS011;49289;51.670;5.624;2023-09-30T01:20:08;13.90;;;6.50;;
63193;SDS011;49289;51.670;5.624;2023-09-30T01:21:57;13.50;;;6.60;;
63193;SDS011;49289;51.670;5.624;2023-09-30T01:23:45;11.50;;;6.20;;
63193;SDS011;49289;51.670;5.624;2023-09-30T01:25:33;11.00;;;6.10;;
63193;SDS011;49289;51.670;5.624;2023-09-30T01:27:21;11.40;;;6.80;;
63193;SDS011;49289;51.670;5.624;2023-09-30T01:29:09;11.60;;;6.40;;
63193;SDS011;49289;51.670;5.624;2023-09-30T01:30:57;12.20;;;6.60;;
63193;SDS011;49289;51.670;5.624;2023-09-30T01:32:45;12.50;;;7.20;;
63193;SDS011;49289;51.670;5.624;2023-09-30T01:34:33;10.10;;;6.50;;
63193;SDS011;49289;51.670;5.624;2023-09-30T01:36:21;11.20;;;6.80;;
63193;SDS011;49289;51.670;5.624;2023-09-30T01:38:09;10.30;;;6.60;;
63193;SDS011;49289;51.670;5.624;2023-09-30T01:39:57;11.30;;;6.50;;
63193;SDS011;49289;51.670;5.624;2023-09-30T01:41:45;14.10;;;6.70;;
63193;SDS011;49289;51.670;5.624;2023-09-30T01:43:33;13.50;;;7.30;;
63193;SDS011;49289;51.670;5.624;2023-09-30T01:45:21;14.00;;;7.40;;
63193;SDS011;49289;51.670;5.624;2023-09-30T01:47:09;12.40;;;7.50;;
63193;SDS011;49289;51.670;5.624;2023-09-30T01:48:57;12.50;;;7.20;;
63193;SDS011;49289;51.670;5.624;2023-09-30T01:50:45;12.50;;;7.50;;
63193;SDS011;49289;51.670;5.624;2023-09-30T01:52:33;14.80;;;6.80;;
63193;SDS011;49289;51.670;5.624;2023-09-30T01:54:21;17.50;;;7.40;;
63193;SDS011;49289;51.670;5.624;2023-09-30T01:56:09;12.70;;;7.10;;
63193;SDS011;49289;51.670;5.624;2023-09-30T01:57:58;13.00;;;7.10;;
63193;SDS011;49289;51.670;5.624;2023-09-30T01:59:46;16.30;;;7.20;;
63193;SDS011;49289;51.670;5.624;2023-09-30T02:01:25;10.60;;;7.30;;
63193;SDS011;49289;51.670;5.624;2023-09-30T02:03:12;14.40;;;8.60;;
63193;SDS011;49289;51.670;5.624;2023-09-30T02:04:59;13.40;;;7.40;;
63193;SDS011;49289;51.670;5.624;2023-09-30T02:06:46;12.60;;;7.50;;
63193;SDS011;49289;51.670;5.624;2023-09-30T02:08:34;11.70;;;7.40;;
63193;SDS011;49289;51.670;5.624;2023-09-30T02:10:22;12.80;;;7.60;;
63193;SDS011;49289;51.670;5.624;2023-09-30T02:12:11;13.70;;;7.90;;
63193;SDS011;49289;51.670;5.624;2023-09-30T02:13:59;11.60;;;7.70;;
63193;SDS011;49289;51.670;5.624;2023-09-30T02:15:47;12.90;;;7.20;;
63193;SDS011;49289;51.670;5.624;2023-09-30T02:17:34;15.90;;;8.00;;
63193;SDS011;49289;51.670;5.624;2023-09-30T02:19:21;14.80;;;7.80;;
63193;SDS011;49289;51.670;5.624;2023-09-30T02:21:08;12.90;;;8.00;;
63193;SDS011;49289;51.670;5.624;2023-09-30T02:22:55;15.90;;;8.80;;
63193;SDS011;49289;51.670;5.624;2023-09-30T02:24:42;14.00;;;8.20;;
63193;SDS011;49289;51.670;5.624;2023-09-30T02:26:29;13.50;;;7.80;;
63193;SDS011;49289;51.670;5.624;2023-09-30T02:28:16;14.70;;;7.90;;
63193;SDS011;49289;51.670;5.624;2023-09-30T02:30:04;23.10;;;8.50;;
63193;SDS011;49289;51.670;5.624;2023-09-30T02:31:53;12.30;;;7.60;;
63193;SDS011;49289;51.670;5.624;2023-09-30T02:33:40;12.00;;;7.50;;
63193;SDS011;49289;51.670;5.624;2023-09-30T02:35:29;13.00;;;8.00;;
63193;SDS011;49289;51.670;5.624;2023-09-30T02:37:16;14.20;;;7.70;;
63193;SDS011;49289;51.670;5.624;2023-09-30T02:39:04;14.80;;;8.20;;
63193;SDS011;49289;51.670;5.624;2023-09-30T02:40:53;13.40;;;8.00;;
63193;SDS011;49289;51.670;5.624;2023-09-30T02:42:41;12.20;;;7.60;;
63193;SDS011;49289;51.670;5.624;2023-09-30T02:44:29;15.30;;;7.90;;
63193;SDS011;49289;51.670;5.624;2023-09-30T02:46:17;13.40;;;8.10;;
63193;SDS011;49289;51.670;5.624;2023-09-30T02:48:05;14.30;;;8.00;;
63193;SDS011;49289;51.670;5.624;2023-09-30T02:49:53;15.70;;;8.20;;
63193;SDS011;49289;51.670;5.624;2023-09-30T02:51:40;13.30;;;8.50;;
63193;SDS011;49289;51.670;5.624;2023-09-30T02:53:27;15.70;;;8.40;;
63193;SDS011;49289;51.670;5.624;2023-09-30T02:55:15;13.60;;;8.50;;
63193;SDS011;49289;51.670;5.624;2023-09-30T02:57:03;15.40;;;8.80;;
63193;SDS011;49289;51.670;5.624;2023-09-30T02:58:53;14.20;;;8.30;;
63193;SDS011;49289;51.670;5.624;2023-09-30T03:00:41;13.60;;;8.30;;
63193;SDS011;49289;51.670;5.624;2023-09-30T03:02:28;13.80;;;9.00;;
63193;SDS011;49289;51.670;5.624;2023-09-30T03:04:17;17.10;;;8.30;;
63193;SDS011;49289;51.670;5.624;2023-09-30T03:06:05;17.70;;;8.90;;
63193;SDS011;49289;51.670;5.624;2023-09-30T03:07:53;13.40;;;8.70;;
63193;SDS011;49289;51.670;5.624;2023-09-30T03:09:41;15.20;;;8.90;;
63193;SDS011;49289;51.670;5.624;2023-09-30T03:11:28;16.10;;;8.30;;
63193;SDS011;49289;51.670;5.624;2023-09-30T03:13:15;15.20;;;8.90;;
63193;SDS011;49289;51.670;5.624;2023-09-30T03:15:02;13.60;;;8.40;;
63193;SDS011;49289;51.670;5.624;2023-09-30T03:16:51;14.80;;;8.80;;
63193;SDS011;49289;51.670;5.624;2023-09-30T03:18:39;16.90;;;9.10;;
63193;SDS011;49289;51.670;5.624;2023-09-30T03:20:27;12.90;;;8.40;;
63193;SDS011;49289;51.670;5.624;2023-09-30T03:22:15;13.40;;;8.60;;
63193;SDS011;49289;51.670;5.624;2023-09-30T03:24:03;16.20;;;8.30;;
63193;SDS011;49289;51.670;5.624;2023-09-30T03:25:51;12.30;;;8.50;;
63193;SDS011;49289;51.670;5.624;2023-09-30T03:27:42;11.80;;;8.50;;
63193;SDS011;49289;51.670;5.624;2023-09-30T03:29:30;12.70;;;8.40;;
63193;SDS011;49289;51.670;5.624;2023-09-30T03:31:18;17.60;;;9.30;;
63193;SDS011;49289;51.670;5.624;2023-09-30T03:33:05;15.60;;;9.20;;
63193;SDS011;49289;51.670;5.624;2023-09-30T03:34:52;15.20;;;8.60;;
63193;SDS011;49289;51.670;5.624;2023-09-30T03:36:39;15.80;;;9.30;;
63193;SDS011;49289;51.670;5.624;2023-09-30T03:38:26;18.20;;;9.70;;
63193;SDS011;49289;51.670;5.624;2023-09-30T03:40:14;15.20;;;8.70;;
63193;SDS011;49289;51.670;5.624;2023-09-30T03:42:02;14.20;;;8.60;;
63193;SDS011;49289;51.670;5.624;2023-09-30T03:43:50;14.00;;;8.60;;
63193;SDS011;49289;51.670;5.624;2023-09-30T03:45:40;13.80;;;8.90;;
63193;SDS011;49289;51.670;5.624;2023-09-30T03:47:28;18.10;;;8.70;;
63193;SDS011;49289;51.670;5.624;2023-09-30T03:49:17;12.80;;;8.70;;
63193;SDS011;49289;51.670;5.624;2023-09-30T03:51:14;14.20;;;9.20;;
63193;SDS011;49289;51.670;5.624;2023-09-30T03:53:06;15.40;;;8.80;;
63193;SDS011;49289;51.670;5.624;2023-09-30T03:54:53;15.10;;;8.90;;
63193;SDS011;49289;51.670;5.624;2023-09-30T03:56:40;15.60;;;9.20;;
63193;SDS011;49289;51.670;5.624;2023-09-30T03:58:27;14.20;;;9.20;;
63193;SDS011;49289;51.670;5.624;2023-09-30T04:00:15;16.30;;;9.40;;
63193;SDS011;49289;51.670;5.624;2023-09-30T04:02:03;14.20;;;8.30;;
63193;SDS011;49289;51.670;5.624;2023-09-30T04:03:51;14.80;;;8.60;;
63193;SDS011;49289;51.670;5.624;2023-09-30T04:05:38;13.70;;;8.50;;
63193;SDS011;49289;51.670;5.624;2023-09-30T04:07:26;15.70;;;8.10;;
63193;SDS011;49289;51.670;5.624;2023-09-30T04:09:14;13.20;;;8.20;;
63193;SDS011;49289;51.670;5.624;2023-09-30T04:11:02;14.20;;;8.50;;
63193;SDS011;49289;51.670;5.624;2023-09-30T04:12:49;15.30;;;8.60;;
63193;SDS011;49289;51.670;5.624;2023-09-30T04:14:36;14.20;;;8.80;;
63193;SDS011;49289;51.670;5.624;2023-09-30T04:16:24;18.80;;;8.70;;
63193;SDS011;49289;51.670;5.624;2023-09-30T04:18:12;14.30;;;8.50;;
63193;SDS011;49289;51.670;5.624;2023-09-30T04:20:00;15.50;;;8.50;;
63193;SDS011;49289;51.670;5.624;2023-09-30T04:21:49;11.60;;;8.50;;
63193;SDS011;49289;51.670;5.624;2023-09-30T04:23:37;15.30;;;8.70;;
63193;SDS011;49289;51.670;5.624;2023-09-30T04:25:25;13.90;;;8.70;;
63193;SDS011;49289;51.670;5.624;2023-09-30T04:27:12;12.60;;;8.40;;
63193;SDS011;49289;51.670;5.624;2023-09-30T04:28:59;14.30;;;8.50;;
63193;SDS011;49289;51.670;5.624;2023-09-30T04:30:46;12.70;;;8.10;;
63193;SDS011;49289;51.670;5.624;2023-09-30T04:32:33;14.50;;;8.80;;
63193;SDS011;49289;51.670;5.624;2023-09-30T04:34:20;13.80;;;8.90;;
63193;SDS011;49289;51.670;5.624;2023-09-30T04:36:09;12.10;;;8.40;;
63193;SDS011;49289;51.670;5.624;2023-09-30T04:37:56;13.70;;;8.50;;
63193;SDS011;49289;51.670;5.624;2023-09-30T04:39:43;17.10;;;9.00;;
63193;SDS011;49289;51.670;5.624;2023-09-30T04:41:30;14.30;;;8.90;;
63193;SDS011;49289;51.670;5.624;2023-09-30T04:43:17;15.30;;;8.80;;
63193;SDS011;49289;51.670;5.624;2023-09-30T04:45:04;13.90;;;9.00;;
63193;SDS011;49289;51.670;5.624;2023-09-30T04:46:52;14.10;;;8.60;;
63193;SDS011;49289;51.670;5.624;2023-09-30T04:48:39;14.40;;;8.30;;
63193;SDS011;49289;51.670;5.624;2023-09-30T04:50:26;13.70;;;8.20;;
63193;SDS011;49289;51.670;5.624;2023-09-30T04:52:13;14.50;;;8.50;;
63193;SDS011;49289;51.670;5.624;2023-09-30T04:54:00;12.70;;;8.60;;
63193;SDS011;49289;51.670;5.624;2023-09-30T04:55:51;12.10;;;8.60;;
63193;SDS011;49289;51.670;5.624;2023-09-30T04:57:38;12.00;;;7.80;;
63193;SDS011;49289;51.670;5.624;2023-09-30T04:59:25;13.20;;;7.90;;
63193;SDS011;49289;51.670;5.624;2023-09-30T05:01:12;14.30;;;8.50;;
63193;SDS011;49289;51.670;5.624;2023-09-30T05:03:02;13.80;;;8.80;;
63193;SDS011;49289;51.670;5.624;2023-09-30T05:04:48;14.60;;;8.70;;
63193;SDS011;49289;51.670;5.624;2023-09-30T05:06:37;14.60;;;9.00;;
63193;SDS011;49289;51.670;5.624;2023-09-30T05:08:25;13.10;;;8.60;;
63193;SDS011;49289;51.670;5.624;2023-09-30T05:10:13;13.70;;;8.70;;
63193;SDS011;49289;51.670;5.624;2023-09-30T05:12:00;14.40;;;8.10;;
63193;SDS011;49289;51.670;5.624;2023-09-30T05:13:51;16.40;;;8.60;;
63193;SDS011;49289;51.670;5.624;2023-09-30T05:15:38;16.10;;;8.20;;
63193;SDS011;49289;51.670;5.624;2023-09-30T05:17:26;15.40;;;8.60;;
63193;SDS011;49289;51.670;5.624;2023-09-30T05:19:14;16.20;;;8.80;;
63193;SDS011;49289;51.670;5.624;2023-09-30T05:21:01;14.20;;;8.30;;
63193;SDS011;49289;51.670;5.624;2023-09-30T05:22:48;13.90;;;8.60;;
63193;SDS011;49289;51.670;5.624;2023-09-30T05:24:35;15.00;;;8.10;;
63193;SDS011;49289;51.670;5.624;2023-09-30T05:26:22;15.20;;;8.70;;
63193;SDS011;49289;51.670;5.624;2023-09-30T05:28:09;14.30;;;8.70;;
63193;SDS011;49289;51.670;5.624;2023-09-30T05:29:56;14.40;;;9.00;;
63193;SDS011;49289;51.670;5.624;2023-09-30T05:31:43;13.30;;;8.00;;
63193;SDS011;49289;51.670;5.624;2023-09-30T05:33:30;12.90;;;8.30;;
63193;SDS011;49289;51.670;5.624;2023-09-30T05:35:17;15.40;;;8.30;;
63193;SDS011;49289;51.670;5.624;2023-09-30T05:37:04;13.40;;;8.90;;
63193;SDS011;49289;51.670;5.624;2023-09-30T05:38:51;15.70;;;8.40;;
63193;SDS011;49289;51.670;5.624;2023-09-30T05:40:38;16.20;;;8.80;;
63193;SDS011;49289;51.670;5.624;2023-09-30T05:42:25;14.90;;;9.00;;
63193;SDS011;49289;51.670;5.624;2023-09-30T05:44:05;17.70;;;9.00;;
63193;SDS011;49289;51.670;5.624;2023-09-30T05:45:56;13.40;;;8.50;;
63193;SDS011;49289;51.670;5.624;2023-09-30T05:47:43;18.80;;;8.80;;
63193;SDS011;49289;51.670;5.624;2023-09-30T05:49:30;15.20;;;8.70;;
63193;SDS011;49289;51.670;5.624;2023-09-30T05:51:18;14.10;;;8.20;;
63193;SDS011;49289;51.670;5.624;2023-09-30T05:53:05;12.60;;;8.80;;
63193;SDS011;49289;51.670;5.624;2023-09-30T05:54:52;18.30;;;9.60;;
63193;SDS011;49289;51.670;5.624;2023-09-30T05:56:40;17.10;;;8.80;;
63193;SDS011;49289;51.670;5.624;2023-09-30T05:58:28;16.50;;;8.70;;
63193;SDS011;49289;51.670;5.624;2023-09-30T06:00:17;15.20;;;8.90;;
63193;SDS011;49289;51.670;5.624;2023-09-30T06:02:04;14.30;;;8.50;;
63193;SDS011;49289;51.670;5.624;2023-09-30T06:03:51;16.10;;;9.10;;
63193;SDS011;49289;51.670;5.624;2023-09-30T06:05:39;15.80;;;9.20;;
63193;SDS011;49289;51.670;5.624;2023-09-30T06:07:25;12.60;;;8.90;;
63193;SDS011;49289;51.670;5.624;2023-09-30T06:09:12;19.50;;;9.70;;
63193;SDS011;49289;51.670;5.624;2023-09-30T06:10:59;17.40;;;9.90;;
63193;SDS011;49289;51.670;5.624;2023-09-30T06:12:46;16.30;;;9.90;;
63193;SDS011;49289;51.670;5.624;2023-09-30T06:14:33;16.80;;;9.70;;
63193;SDS011;49289;51.670;5.624;2023-09-30T06:16:20;21.50;;;11.00;;
63193;SDS011;49289;51.670;5.624;2023-09-30T06:18:08;14.60;;;10.00;;
63193;SDS011;49289;51.670;5.624;2023-09-30T06:19:56;18.80;;;10.40;;
63193;SDS011;49289;51.670;5.624;2023-09-30T06:21:44;18.10;;;10.20;;
63193;SDS011;49289;51.670;5.624;2023-09-30T06:23:32;19.40;;;9.90;;
63193;SDS011;49289;51.670;5.624;2023-09-30T06:25:20;15.80;;;9.80;;
63193;SDS011;49289;51.670;5.624;2023-09-30T06:27:08;15.70;;;9.60;;
63193;SDS011;49289;51.670;5.624;2023-09-30T06:28:56;16.40;;;10.00;;
63193;SDS011;49289;51.670;5.624;2023-09-30T06:30:45;16.40;;;10.20;;
63193;SDS011;49289;51.670;5.624;2023-09-30T06:32:34;17.70;;;10.30;;
63193;SDS011;49289;51.670;5.624;2023-09-30T06:34:22;16.00;;;10.10;;
63193;SDS011;49289;51.670;5.624;2023-09-30T06:36:13;19.70;;;10.20;;
63193;SDS011;49289;51.670;5.624;2023-09-30T06:38:00;19.90;;;10.30;;
63193;SDS011;49289;51.670;5.624;2023-09-30T06:39:47;20.60;;;10.00;;
63193;SDS011;49289;51.670;5.624;2023-09-30T06:41:34;16.60;;;10.20;;
63193;SDS011;49289;51.670;5.624;2023-09-30T06:43:21;18.70;;;10.90;;
63193;SDS011;49289;51.670;5.624;2023-09-30T06:45:10;20.50;;;10.60;;
63193;SDS011;49289;51.670;5.624;2023-09-30T06:46:57;18.70;;;10.40;;
63193;SDS011;49289;51.670;5.624;2023-09-30T06:48:44;16.80;;;10.30;;
63193;SDS011;49289;51.670;5.624;2023-09-30T06:50:31;17.00;;;10.30;;
63193;SDS011;49289;51.670;5.624;2023-09-30T06:52:18;17.70;;;9.90;;
63193;SDS011;49289;51.670;5.624;2023-09-30T06:54:05;20.10;;;10.60;;
63193;SDS011;49289;51.670;5.624;2023-09-30T06:55:53;20.60;;;10.80;;
63193;SDS011;49289;51.670;5.624;2023-09-30T06:57:41;15.80;;;10.00;;
63193;SDS011;49289;51.670;5.624;2023-09-30T06:59:29;17.10;;;10.60;;
63193;SDS011;49289;51.670;5.624;2023-09-30T07:01:20;17.40;;;10.00;;
63193;SDS011;49289;51.670;5.624;2023-09-30T07:03:07;18.70;;;10.70;;
63193;SDS011;49289;51.670;5.624;2023-09-30T07:04:54;17.60;;;10.40;;
63193;SDS011;49289;51.670;5.624;2023-09-30T07:06:41;18.80;;;10.40;;
63193;SDS011;49289;51.670;5.624;2023-09-30T07:08:28;18.00;;;10.10;;
63193;SDS011;49289;51.670;5.624;2023-09-30T07:10:15;20.50;;;11.10;;
63193;SDS011;49289;51.670;5.624;2023-09-30T07:12:02;22.70;;;11.30;;
63193;SDS011;49289;51.670;5.624;2023-09-30T07:13:51;21.80;;;10.80;;
63193;SDS011;49289;51.670;5.624;2023-09-30T07:15:39;18.30;;;10.60;;
63193;SDS011;49289;51.670;5.624;2023-09-30T07:17:26;25.40;;;11.30;;
63193;SDS011;49289;51.670;5.624;2023-09-30T07:19:13;18.90;;;11.10;;
63193;SDS011;49289;51.670;5.624;2023-09-30T07:21:03;22.50;;;10.90;;
63193;SDS011;49289;51.670;5.624;2023-09-30T07:22:51;19.80;;;11.20;;
63193;SDS011;49289;51.670;5.624;2023-09-30T07:24:38;18.20;;;11.30;;
63193;SDS011;49289;51.670;5.624;2023-09-30T07:26:28;24.70;;;12.30;;
63193;SDS011;49289;51.670;5.624;2023-09-30T07:27:33;22.20;;;11.20;;
63193;SDS011;49289;51.670;5.624;2023-09-30T07:29:20;22.80;;;11.80;;
63193;SDS011;49289;51.670;5.624;2023-09-30T07:31:08;20.60;;;11.80;;
63193;SDS011;49289;51.670;5.624;2023-09-30T07:32:56;24.10;;;12.10;;
63193;SDS011;49289;51.670;5.624;2023-09-30T07:34:43;23.90;;;12.00;;
63193;SDS011;49289;51.670;5.624;2023-09-30T07:36:30;21.20;;;12.30;;
63193;SDS011;49289;51.670;5.624;2023-09-30T07:38:17;21.00;;;12.80;;
63193;SDS011;49289;51.670;5.624;2023-09-30T07:40:05;23.60;;;12.60;;
63193;SDS011;49289;51.670;5.624;2023-09-30T07:41:53;22.30;;;13.20;;
63193;SDS011;49289;51.670;5.624;2023-09-30T07:43:40;24.20;;;12.80;;
63193;SDS011;49289;51.670;5.624;2023-09-30T07:45:27;29.50;;;13.50;;
63193;SDS011;49289;51.670;5.624;2023-09-30T07:47:15;24.30;;;12.70;;
63193;SDS011;49289;51.670;5.624;2023-09-30T07:49:03;22.80;;;12.70;;
63193;SDS011;49289;51.670;5.624;2023-09-30T07:50:50;27.50;;;12.10;;
63193;SDS011;49289;51.670;5.624;2023-09-30T07:52:37;22.30;;;12.50;;
63193;SDS011;49289;51.670;5.624;2023-09-30T07:54:24;24.00;;;12.20;;
63193;SDS011;49289;51.670;5.624;2023-09-30T07:56:11;28.30;;;12.60;;
63193;SDS011;49289;51.670;5.624;2023-09-30T07:57:58;20.70;;;12.00;;
63193;SDS011;49289;51.670;5.624;2023-09-30T07:59:45;23.00;;;11.50;;
63193;SDS011;49289;51.670;5.624;2023-09-30T08:01:32;21.70;;;11.40;;
63193;SDS011;49289;51.670;5.624;2023-09-30T08:03:20;21.90;;;12.10;;
63193;SDS011;49289;51.670;5.624;2023-09-30T08:05:09;22.90;;;11.80;;
63193;SDS011;49289;51.670;5.624;2023-09-30T08:06:57;22.40;;;11.80;;
63193;SDS011;49289;51.670;5.624;2023-09-30T08:08:44;24.40;;;11.40;;
63193;SDS011;49289;51.670;5.624;2023-09-30T08:10:31;20.90;;;10.80;;
63193;SDS011;49289;51.670;5.624;2023-09-30T08:12:18;24.30;;;10.60;;
63193;SDS011;49289;51.670;5.624;2023-09-30T08:14:05;21.80;;;10.70;;
63193;SDS011;49289;51.670;5.624;2023-09-30T08:15:52;18.80;;;10.90;;
63193;SDS011;49289;51.670;5.624;2023-09-30T08:17:39;25.50;;;10.90;;
63193;SDS011;49289;51.670;5.624;2023-09-30T08:19:26;19.50;;;10.40;;
63193;SDS011;49289;51.670;5.624;2023-09-30T08:21:14;20.80;;;10.90;;
63193;SDS011;49289;51.670;5.624;2023-09-30T08:23:03;21.30;;;10.60;;
63193;SDS011;49289;51.670;5.624;2023-09-30T08:24:51;20.80;;;10.10;;
63193;SDS011;49289;51.670;5.624;2023-09-30T08:26:39;26.50;;;10.20;;
63193;SDS011;49289;51.670;5.624;2023-09-30T08:28:27;22.50;;;10.30;;
63193;SDS011;49289;51.670;5.624;2023-09-30T08:30:15;23.30;;;10.30;;
63193;SDS011;49289;51.670;5.624;2023-09-30T08:32:02;20.10;;;9.60;;
63193;SDS011;49289;51.670;5.624;2023-09-30T08:33:50;18.50;;;10.00;;
63193;SDS011;49289;51.670;5.624;2023-09-30T08:35:37;18.10;;;9.20;;
63193;SDS011;49289;51.670;5.624;2023-09-30T08:37:24;21.50;;;10.20;;
63193;SDS011;49289;51.670;5.624;2023-09-30T08:39:11;19.40;;;9.50;;
63193;SDS011;49289;51.670;5.624;2023-09-30T08:40:58;17.60;;;9.50;;
63193;SDS011;49289;51.670;5.624;2023-09-30T08:42:45;17.90;;;8.90;;
63193;SDS011;49289;51.670;5.624;2023-09-30T08:44:33;18.60;;;9.10;;
63193;SDS011;49289;51.670;5.624;2023-09-30T08:46:21;20.10;;;9.00;;
63193;SDS011;49289;51.670;5.624;2023-09-30T08:48:09;19.30;;;8.50;;
63193;SDS011;49289;51.670;5.624;2023-09-30T08:49:58;16.50;;;8.70;;
63193;SDS011;49289;51.670;5.624;2023-09-30T08:51:46;18.40;;;9.10;;
63193;SDS011;49289;51.670;5.624;2023-09-30T08:53:35;16.60;;;9.30;;
63193;SDS011;49289;51.670;5.624;2023-09-30T08:55:23;20.30;;;9.20;;
63193;SDS011;49289;51.670;5.624;2023-09-30T08:57:11;18.50;;;8.70;;
63193;SDS011;49289;51.670;5.624;2023-09-30T08:58:58;17.40;;;8.60;;
63193;SDS011;49289;51.670;5.624;2023-09-30T09:00:45;16.50;;;8.90;;
63193;SDS011;49289;51.670;5.624;2023-09-30T09:02:32;23.20;;;9.30;;
63193;SDS011;49289;51.670;5.624;2023-09-30T09:04:20;16.50;;;9.00;;
63193;SDS011;49289;51.670;5.624;2023-09-30T09:06:09;20.50;;;8.70;;
63193;SDS011;49289;51.670;5.624;2023-09-30T09:07:57;14.90;;;8.10;;
63193;SDS011;49289;51.670;5.624;2023-09-30T09:09:45;16.20;;;7.90;;
63193;SDS011;49289;51.670;5.624;2023-09-30T09:11:46;18.00;;;7.80;;
63193;SDS011;49289;51.670;5.624;2023-09-30T09:13:46;17.70;;;8.00;;
63193;SDS011;49289;51.670;5.624;2023-09-30T09:15:30;17.10;;;8.40;;
63193;SDS011;49289;51.670;5.624;2023-09-30T09:17:17;14.00;;;7.00;;
63193;SDS011;49289;51.670;5.624;2023-09-30T09:19:04;15.80;;;7.70;;
63193;SDS011;49289;51.670;5.624;2023-09-30T09:21:05;14.80;;;7.70;;
63193;SDS011;49289;51.670;5.624;2023-09-30T09:22:56;13.30;;;7.40;;
63193;SDS011;49289;51.670;5.624;2023-09-30T09:24:43;16.70;;;7.70;;
63193;SDS011;49289;51.670;5.624;2023-09-30T09:26:31;17.20;;;7.40;;
63193;SDS011;49289;51.670;5.624;2023-09-30T09:28:17;15.90;;;7.40;;
63193;SDS011;49289;51.670;5.624;2023-09-30T09:30:06;12.80;;;6.90;;
63193;SDS011;49289;51.670;5.624;2023-09-30T09:32:05;14.20;;;7.00;;
63193;SDS011;49289;51.670;5.624;2023-09-30T09:33:53;13.90;;;7.20;;
63193;SDS011;49289;51.670;5.624;2023-09-30T09:35:25;15.00;;;7.10;;
63193;SDS011;49289;51.670;5.624;2023-09-30T09:37:20;17.90;;;7.10;;
63193;SDS011;49289;51.670;5.624;2023-09-30T09:39:08;13.40;;;6.70;;
63193;SDS011;49289;51.670;5.624;2023-09-30T09:40:58;12.10;;;6.50;;
63193;SDS011;49289;51.670;5.624;2023-09-30T09:42:43;10.80;;;6.00;;
63193;SDS011;49289;51.670;5.624;2023-09-30T09:44:30;13.00;;;5.10;;
63193;SDS011;49289;51.670;5.624;2023-09-30T09:46:17;6.90;;;4.10;;
63193;SDS011;49289;51.670;5.624;2023-09-30T09:48:04;11.20;;;4.50;;
63193;SDS011;49289;51.670;5.624;2023-09-30T09:49:51;11.30;;;4.20;;
63193;SDS011;49289;51.670;5.624;2023-09-30T09:51:38;10.60;;;4.30;;
63193;SDS011;49289;51.670;5.624;2023-09-30T09:53:25;10.30;;;4.30;;
63193;SDS011;49289;51.670;5.624;2023-09-30T09:55:14;11.90;;;4.50;;
63193;SDS011;49289;51.670;5.624;2023-09-30T09:57:02;11.00;;;4.40;;
63193;SDS011;49289;51.670;5.624;2023-09-30T09:58:50;11.20;;;4.80;;
63193;SDS011;49289;51.670;5.624;2023-09-30T10:00:38;9.10;;;4.60;;
63193;SDS011;49289;51.670;5.624;2023-09-30T10:02:25;12.80;;;5.00;;
63193;SDS011;49289;51.670;5.624;2023-09-30T10:04:12;10.60;;;4.70;;
63193;SDS011;49289;51.670;5.624;2023-09-30T10:05:59;11.30;;;5.10;;
63193;SDS011;49289;51.670;5.624;2023-09-30T10:07:49;9.20;;;4.90;;
63193;SDS011;49289;51.670;5.624;2023-09-30T10:09:35;12.40;;;4.90;;
63193;SDS011;49289;51.670;5.624;2023-09-30T10:11:22;9.30;;;4.90;;
63193;SDS011;49289;51.670;5.624;2023-09-30T10:13:10;12.20;;;5.40;;
63193;SDS011;49289;51.670;5.624;2023-09-30T10:17:25;13.00;;;5.10;;
63193;SDS011;49289;51.670;5.624;2023-09-30T10:19:27;10.90;;;4.70;;
63193;SDS011;49289;51.670;5.624;2023-09-30T10:21:15;11.40;;;5.20;;
63193;SDS011;49289;51.670;5.624;2023-09-30T10:29:15;12.30;;;4.70;;
63193;SDS011;49289;51.670;5.624;2023-09-30T10:33:14;9.40;;;4.90;;
63193;SDS011;49289;51.670;5.624;2023-09-30T10:35:02;11.40;;;4.90;;
63193;SDS011;49289;51.670;5.624;2023-09-30T10:36:49;9.90;;;5.10;;
63193;SDS011;49289;51.670;5.624;2023-09-30T10:38:43;10.30;;;5.10;;
63193;SDS011;49289;51.670;5.624;2023-09-30T10:40:31;13.00;;;5.70;;
63193;SDS011;49289;51.670;5.624;2023-09-30T10:42:24;10.10;;;5.30;;
63193;SDS011;49289;51.670;5.624;2023-09-30T10:44:40;12.80;;;5.90;;
63193;SDS011;49289;51.670;5.624;2023-09-30T10:46:36;10.70;;;5.90;;
63193;SDS011;49289;51.670;5.624;2023-09-30T10:48:38;12.30;;;5.30;;
63193;SDS011;49289;51.670;5.624;2023-09-30T10:52:36;12.90;;;6.00;;